Time;durP1;ratioP1;P1;durP2;ratioP2;P2;SDS_P1;SDS_P2;PMS_P1;PMS_P2;Temp;Humidity;BMP_temperature;BMP_pressure;BME280_temperature;BME280_humidity;BME280_pressure;Samples;Min_cycle;Max_cycle;Signal;HPM_P1;HPM_P2
2024/03/05 00:01:42;;;;;;;;;0.00;0.00;;;;;-145.09;100.00;59365.97;6291955;22;8744;-87
2024/03/05 00:04:11;;;;;;;;;0.00;0.00;;;;;-145.09;100.00;59365.97;6318966;22;8859;-87
2024/03/05 00:06:37;;;;;;;;;0.00;0.00;;;;;-145.09;100.00;59365.97;6318525;22;8745;-87
2024/03/05 00:09:03;;;;;;;;;10.00;10.00;;;;;-145.09;100.00;59365.97;6290676;22;8874;-86
2024/03/05 00:11:28;;;;;;;;;0.00;0.00;;;;;-145.09;100.00;59365.97;6291540;22;8896;-87
2024/03/05 00:14:03;;;;;;;;;0.00;0.00;;;;;-145.09;100.00;59365.97;6319018;22;8812;-87
2024/03/05 00:16:29;;;;;;;;;0.00;0.00;;;;;-145.09;100.00;59365.97;6318165;22;8753;-87
2024/03/05 00:18:55;;;;;;;;;0.00;0.00;;;;;-145.09;100.00;59365.97;6316740;22;9513;-86
2024/03/05 00:21:20;;;;;;;;;0.00;0.00;;;;;-145.09;100.00;59365.97;6291252;22;8740;-86
2024/03/05 00:23:45;;;;;;;;;0.00;0.00;;;;;-145.09;100.00;59365.97;6291009;22;9517;-87
2024/03/05 00:26:20;;;;;;;;;0.00;0.00;;;;;-145.09;100.00;59365.97;6265198;22;15217;-87
2024/03/05 00:28:45;;;;;;;;;0.00;0.00;;;;;-145.09;100.00;59365.97;6289640;22;9677;-87
2024/03/05 00:31:11;;;;;;;;;0.00;0.00;;;;;-145.09;100.00;59365.97;6264853;22;8788;-87
2024/03/05 00:33:36;;;;;;;;;0.00;0.00;;;;;-145.09;100.00;59365.97;6290496;22;8748;-87
2024/03/05 00:36:05;;;;;;;;;0.00;0.00;;;;;-145.09;100.00;59365.97;6289669;22;8830;-87
2024/03/05 00:38:33;;;;;;;;;0.00;0.00;;;;;-145.09;100.00;59365.97;6266078;22;9514;-86
2024/03/05 00:41:00;;;;;;;;;0.00;0.00;;;;;-145.09;100.00;59365.97;6318633;22;8748;-87
2024/03/05 00:43:25;;;;;;;;;0.00;0.00;;;;;-145.09;100.00;59365.97;6290563;22;8749;-86
2024/03/05 00:45:51;;;;;;;;;0.00;0.00;;;;;-145.09;100.00;59365.97;6291057;22;8811;-87
2024/03/05 00:48:18;;;;;;;;;0.00;0.00;;;;;-145.09;100.00;59365.97;6290396;22;8764;-86
2024/03/05 00:50:44;;;;;;;;;0.00;0.00;;;;;-145.09;100.00;59365.97;6291236;22;8721;-86
2024/03/05 00:53:13;;;;;;;;;0.00;0.00;;;;;-145.09;100.00;59365.97;6317153;22;8814;-86
2024/03/05 00:55:40;;;;;;;;;0.00;0.00;;;;;-145.09;100.00;59365.97;6319343;22;8767;-86
2024/03/05 00:58:07;;;;;;;;;0.00;0.00;;;;;-145.09;100.00;59365.97;6290886;22;8748;-86
2024/03/05 01:00:32;;;;;;;;;0.00;0.00;;;;;-145.09;100.00;59365.97;6291291;22;8825;-87
2024/03/05 01:02:58;;;;;;;;;0.00;0.00;;;;;-145.09;100.00;59365.97;6290862;22;8772;-86
2024/03/05 01:05:23;;;;;;;;;0.00;0.00;;;;;-145.09;100.00;59365.97;6290775;22;8854;-86
2024/03/05 01:07:51;;;;;;;;;0.00;0.00;;;;;-145.09;100.00;59365.97;6290838;22;8843;-87
2024/03/05 01:10:17;;;;;;;;;0.00;0.00;;;;;-145.09;100.00;59365.97;6317887;22;8701;-85
2024/03/05 01:12:43;;;;;;;;;0.75;0.75;;;;;-145.09;100.00;59365.97;6318816;22;8799;-87
2024/03/05 01:15:09;;;;;;;;;0.00;0.00;;;;;-145.09;100.00;59365.97;6317399;22;8752;-87
2024/03/05 01:17:39;;;;;;;;;0.00;0.00;;;;;-145.09;100.00;59365.97;6318457;22;8760;-86
2024/03/05 01:20:10;;;;;;;;;0.00;0.00;;;;;-145.09;100.00;59365.97;6290576;22;8729;-87
2024/03/05 01:22:36;;;;;;;;;0.00;0.00;;;;;-145.09;100.00;59365.97;6290965;22;8854;-87
2024/03/05 01:25:02;;;;;;;;;0.00;0.00;;;;;-145.09;100.00;59365.97;6317955;22;8737;-87
2024/03/05 01:27:27;;;;;;;;;0.00;0.00;;;;;-145.09;100.00;59365.97;6316291;22;9529;-85
2024/03/05 01:29:52;;;;;;;;;0.00;0.00;;;;;-145.09;100.00;59365.97;6318949;22;8756;-87
2024/03/05 01:32:19;;;;;;;;;0.00;0.00;;;;;-145.09;100.00;59365.97;6291850;22;8811;-86
2024/03/05 01:34:47;;;;;;;;;0.00;0.00;;;;;-145.09;100.00;59365.97;6291198;22;8748;-86
2024/03/05 01:37:13;;;;;;;;;0.00;0.00;;;;;-145.09;100.00;59365.97;6292141;22;8757;-86
2024/03/05 01:39:38;;;;;;;;;0.00;0.00;;;;;-145.09;100.00;59365.97;6291792;22;8749;-87
2024/03/05 01:42:07;;;;;;;;;0.00;0.00;;;;;-145.09;100.00;59365.97;6291876;22;8770;-86
2024/03/05 01:44:33;;;;;;;;;0.00;0.00;;;;;-145.09;100.00;59365.97;6318892;22;8737;-86
2024/03/05 01:46:58;;;;;;;;;0.00;0.00;;;;;-145.09;100.00;59365.97;6265782;22;8753;-86
2024/03/05 01:49:24;;;;;;;;;0.00;0.00;;;;;-145.09;100.00;59365.97;6291543;22;8776;-87
2024/03/05 01:51:53;;;;;;;;;0.00;0.00;;;;;-145.09;100.00;59365.97;6291477;22;8850;-86
2024/03/05 01:54:28;;;;;;;;;0.00;0.00;;;;;-145.09;100.00;59365.97;6292067;22;8745;-86
2024/03/05 01:56:57;;;;;;;;;0.00;0.00;;;;;-145.09;100.00;59365.97;6293557;22;8761;-86
2024/03/05 01:59:25;;;;;;;;;0.00;0.00;;;;;-145.09;100.00;59365.97;6292023;22;8733;-86
2024/03/05 02:01:52;;;;;;;;;0.00;0.00;;;;;-145.09;100.00;59365.97;6291616;22;8752;-86
2024/03/05 02:04:17;;;;;;;;;0.00;0.00;;;;;-145.09;100.00;59365.97;6318111;22;8775;-86
2024/03/05 02:06:44;;;;;;;;;0.00;0.00;;;;;-145.09;100.00;59365.97;6291222;22;8765;-86
2024/03/05 02:09:12;;;;;;;;;0.00;0.00;;;;;-145.09;100.00;59365.97;6291741;22;9518;-87
2024/03/05 02:11:39;;;;;;;;;0.00;0.00;;;;;-145.09;100.00;59365.97;6318975;22;9529;-86
2024/03/05 02:14:07;;;;;;;;;0.00;0.00;;;;;-145.09;100.00;59365.97;6291898;22;8744;-86
2024/03/05 02:16:33;;;;;;;;;0.00;0.00;;;;;-145.09;100.00;59365.97;6291867;22;8737;-86
2024/03/05 02:18:58;;;;;;;;;0.00;0.00;;;;;-145.09;100.00;59365.97;6264674;22;8835;-86
2024/03/05 02:21:23;;;;;;;;;0.00;0.00;;;;;-145.09;100.00;59365.97;6317610;22;22483;-86
2024/03/05 02:23:51;;;;;;;;;1.00;1.00;;;;;-145.09;100.00;59365.97;6318653;22;11364;-85
2024/03/05 02:26:17;;;;;;;;;0.00;0.00;;;;;-145.09;100.00;59365.97;6319015;22;9734;-87
2024/03/05 02:28:44;;;;;;;;;0.00;0.00;;;;;-145.09;100.00;59365.97;6319068;22;8733;-86
2024/03/05 02:31:09;;;;;;;;;0.00;0.00;;;;;-145.09;100.00;59365.97;6291087;22;8829;-87
2024/03/05 02:33:34;;;;;;;;;0.00;0.00;;;;;-145.09;100.00;59365.97;6290836;22;31370;-86
2024/03/05 02:36:00;;;;;;;;;0.00;0.00;;;;;-145.09;100.00;59365.97;6290210;22;30625;-86
2024/03/05 02:38:26;;;;;;;;;0.00;0.00;;;;;-145.09;100.00;59365.97;6318963;22;8781;-87
2024/03/05 02:40:51;;;;;;;;;0.00;0.00;;;;;-145.09;100.00;59365.97;6319712;22;8777;-86
2024/03/05 02:43:17;;;;;;;;;0.00;0.00;;;;;-145.09;100.00;59365.97;6264260;22;34353;-86
2024/03/05 02:45:42;;;;;;;;;1.00;1.00;;;;;-145.09;100.00;59365.97;6290327;22;34099;-87
2024/03/05 02:48:09;;;;;;;;;0.00;0.00;;;;;-145.09;100.00;59365.97;6318591;22;11390;-86
2024/03/05 02:50:34;;;;;;;;;0.00;0.00;;;;;-145.09;100.00;59365.97;6291846;22;10182;-86
2024/03/05 02:52:59;;;;;;;;;0.00;0.00;;;;;-145.09;100.00;59365.97;6316509;22;8777;-87
2024/03/05 02:55:25;;;;;;;;;0.00;0.00;;;;;-145.09;100.00;59365.97;6316051;22;30044;-86
2024/03/05 02:57:50;;;;;;;;;0.00;0.00;;;;;-145.09;100.00;59365.97;6291667;22;9834;-86
2024/03/05 03:00:18;;;;;;;;;0.00;0.00;;;;;-145.09;100.00;59365.97;6318742;22;8792;-86
2024/03/05 03:02:50;;;;;;;;;0.00;0.00;;;;;-145.09;100.00;59365.97;6319206;22;8740;-87
2024/03/05 03:05:16;;;;;;;;;0.00;0.00;;;;;-145.09;100.00;59365.97;6291165;22;19451;-86
2024/03/05 03:07:43;;;;;;;;;0.00;0.00;;;;;-145.09;100.00;59365.97;6317551;22;8753;-86
2024/03/05 03:10:11;;;;;;;;;0.00;0.00;;;;;-145.09;100.00;59365.97;6291611;22;8752;-86
2024/03/05 03:12:36;;;;;;;;;1.00;1.00;;;;;-145.09;100.00;59365.97;6318957;22;8760;-86
2024/03/05 03:15:02;;;;;;;;;0.00;0.00;;;;;-145.09;100.00;59365.97;6291139;22;8689;-86
2024/03/05 03:17:27;;;;;;;;;0.00;0.00;;;;;-145.09;100.00;59365.97;6318988;22;8765;-86
2024/03/05 03:19:56;;;;;;;;;0.00;0.00;;;;;-145.09;100.00;59365.97;6319680;22;8741;-87
2024/03/05 03:22:21;;;;;;;;;0.00;0.00;;;;;-145.09;100.00;59365.97;6292615;22;8848;-86
2024/03/05 03:24:47;;;;;;;;;0.00;0.00;;;;;-145.09;100.00;59365.97;6316412;22;25411;-87
2024/03/05 03:27:13;;;;;;;;;0.00;0.00;;;;;-145.09;100.00;59365.97;6319174;22;11339;-86
2024/03/05 03:29:40;;;;;;;;;0.00;0.00;;;;;-145.09;100.00;59365.97;6262206;22;26999;-86
2024/03/05 03:32:08;;;;;;;;;0.00;0.00;;;;;-145.09;100.00;59365.97;6291684;22;11363;-86
2024/03/05 03:34:37;;;;;;;;;0.00;0.00;;;;;-145.09;100.00;59365.97;6291595;22;8854;-86
2024/03/05 03:37:02;;;;;;;;;0.00;0.00;;;;;-145.09;100.00;59365.97;6292333;22;8763;-86
2024/03/05 03:39:30;;;;;;;;;0.00;0.00;;;;;-145.09;100.00;59365.97;6265652;22;8777;-86
2024/03/05 03:41:56;;;;;;;;;0.00;0.00;;;;;-145.09;100.00;59365.97;6291732;22;8792;-87
2024/03/05 03:44:22;;;;;;;;;0.00;0.00;;;;;-145.09;100.00;59365.97;6290333;22;8773;-85
2024/03/05 03:46:50;;;;;;;;;0.00;0.00;;;;;-145.09;100.00;59365.97;6291065;22;8777;-87
2024/03/05 03:49:23;;;;;;;;;0.00;0.00;;;;;-145.09;100.00;59365.97;6290643;22;8780;-86
2024/03/05 03:51:48;;;;;;;;;0.00;0.00;;;;;-145.09;100.00;59365.97;6319021;22;8864;-87
2024/03/05 03:54:15;;;;;;;;;0.00;0.00;;;;;-145.09;100.00;59365.97;6316501;22;29765;-86
2024/03/05 03:56:41;;;;;;;;;0.00;0.00;;;;;-145.09;100.00;59365.97;6316780;22;12145;-86
2024/03/05 03:59:06;;;;;;;;;0.00;0.00;;;;;-145.09;100.00;59365.97;6264044;22;30062;-86
2024/03/05 04:01:35;;;;;;;;;0.00;0.00;;;;;-145.09;100.00;59365.97;6318455;22;11402;-86
2024/03/05 04:04:02;;;;;;;;;0.00;0.00;;;;;-145.09;100.00;59365.97;6317002;22;10148;-86
2024/03/05 04:06:34;;;;;;;;;0.00;0.00;;;;;-145.09;100.00;59365.97;6291588;22;8752;-85
2024/03/05 04:09:00;;;;;;;;;0.00;0.00;;;;;-145.09;100.00;59365.97;6293984;22;8791;-86
2024/03/05 04:11:26;;;;;;;;;0.00;0.00;;;;;-145.09;100.00;59365.97;6290500;22;9546;-86
2024/03/05 04:13:51;;;;;;;;;7.00;7.00;;;;;-145.09;100.00;59365.97;6318642;22;8693;-86
2024/03/05 04:16:16;;;;;;;;;0.00;0.00;;;;;-145.09;100.00;59365.97;6316926;22;8777;-85
2024/03/05 04:18:45;;;;;;;;;0.00;0.00;;;;;-145.09;100.00;59365.97;6291404;22;15840;-88
2024/03/05 04:21:10;;;;;;;;;0.00;0.00;;;;;-145.09;100.00;59365.97;6290609;22;10574;-86
2024/03/05 04:23:36;;;;;;;;;0.00;0.00;;;;;-145.09;100.00;59365.97;6291253;22;8791;-86
2024/03/05 04:26:08;;;;;;;;;0.00;0.00;;;;;-145.09;100.00;59365.97;6317054;22;8756;-86
2024/03/05 04:28:48;;;;;;;;;0.00;0.00;;;;;-145.09;100.00;59365.97;6290256;22;8741;-87
2024/03/05 04:31:15;;;;;;;;;0.00;0.00;;;;;-145.09;100.00;59365.97;6291249;22;8764;-86
2024/03/05 04:33:43;;;;;;;;;0.00;0.00;;;;;-145.09;100.00;59365.97;6291012;22;9471;-86
2024/03/05 04:36:09;;;;;;;;;0.00;0.00;;;;;-145.09;100.00;59365.97;6291255;22;8825;-86
2024/03/05 04:38:37;;;;;;;;;0.00;0.00;;;;;-145.09;100.00;59365.97;6318209;22;8772;-86
2024/03/05 04:41:04;;;;;;;;;0.00;0.00;;;;;-145.09;100.00;59365.97;6318744;22;9593;-87
2024/03/05 04:43:29;;;;;;;;;0.00;0.00;;;;;-145.09;100.00;59365.97;6290332;22;8761;-86
2024/03/05 04:45:56;;;;;;;;;0.00;0.00;;;;;-145.09;100.00;59365.97;6318987;22;8756;-86
2024/03/05 04:48:24;;;;;;;;;0.00;0.00;;;;;-145.09;100.00;59365.97;6318383;22;8759;-86
2024/03/05 04:50:54;;;;;;;;;0.00;0.00;;;;;-145.09;100.00;59365.97;6317304;22;9609;-86
2024/03/05 04:53:19;;;;;;;;;0.00;0.00;;;;;-145.09;100.00;59365.97;6317917;22;8768;-86
2024/03/05 04:55:44;;;;;;;;;0.00;0.00;;;;;-145.09;100.00;59365.97;6317677;22;21786;-86
2024/03/05 04:58:10;;;;;;;;;0.00;0.00;;;;;-145.09;100.00;59365.97;6316784;22;11112;-86
2024/03/05 05:00:37;;;;;;;;;0.00;0.00;;;;;-145.09;100.00;59365.97;6290728;22;16949;-85
2024/03/05 05:03:03;;;;;;;;;0.00;0.00;;;;;-145.09;100.00;59365.97;6318188;22;10295;-86
2024/03/05 05:05:31;;;;;;;;;0.00;0.00;;;;;-145.09;100.00;59365.97;6292036;22;8740;-87
2024/03/05 05:08:00;;;;;;;;;0.00;0.00;;;;;-145.09;100.00;59365.97;6291945;22;8764;-86
2024/03/05 05:10:28;;;;;;;;;0.00;0.00;;;;;-145.09;100.00;59365.97;6293130;22;8768;-86
2024/03/05 05:12:53;;;;;;;;;0.00;0.00;;;;;-145.09;100.00;59365.97;6317830;22;8798;-86
2024/03/05 05:15:19;;;;;;;;;0.00;0.00;;;;;-145.09;100.00;59365.97;6291691;22;8863;-86
2024/03/05 05:17:44;;;;;;;;;0.00;0.00;;;;;-145.09;100.00;59365.97;6292192;22;8795;-86
2024/03/05 05:20:10;;;;;;;;;0.00;0.00;;;;;-145.09;100.00;59365.97;6292013;22;8753;-86
2024/03/05 05:22:44;;;;;;;;;0.00;0.00;;;;;-145.09;100.00;59365.97;6319216;22;8761;-86
2024/03/05 05:25:24;;;;;;;;;;;;;;;;;;;;;
2024/03/05 05:27:53;;;;;;;;;0.00;0.00;;;;;-145.09;100.00;59365.97;6315895;22;36965;-85
2024/03/05 05:30:21;;;;;;;;;0.00;0.00;;;;;-145.09;100.00;59365.97;6317470;22;8776;-86
2024/03/05 05:32:53;;;;;;;;;0.00;0.00;;;;;-145.09;100.00;59365.97;6318724;22;9522;-87
2024/03/05 05:35:18;;;;;;;;;0.00;0.00;;;;;-145.09;100.00;59365.97;6292654;22;8842;-86
2024/03/05 05:37:44;;;;;;;;;0.00;0.00;;;;;-145.09;100.00;59365.97;6291993;22;8764;-87
2024/03/05 05:40:20;;;;;;;;;;;;;;;;;;;;;
2024/03/05 05:42:50;;;;;;;;;0.00;0.00;;;;;-145.09;100.00;59365.97;6291482;22;36782;-86
2024/03/05 05:45:15;;;;;;;;;0.00;0.00;;;;;-145.09;100.00;59365.97;6291850;22;8767;-86
2024/03/05 05:47:51;;;;;;;;;0.00;0.00;;;;;-145.09;100.00;59365.97;6291844;22;8764;-86
2024/03/05 05:50:17;;;;;;;;;0.00;0.00;;;;;-145.09;100.00;59365.97;6318954;22;8737;-87
2024/03/05 05:52:52;;;;;;;;;0.00;0.00;;;;;-145.09;100.00;59365.97;6291718;22;8849;-86
2024/03/05 05:55:23;;;;;;;;;0.00;0.00;;;;;-145.09;100.00;59365.97;6292045;22;8740;-87
2024/03/05 05:57:52;;;;;;;;;0.00;0.00;;;;;-145.09;100.00;59365.97;6292122;22;9518;-86
2024/03/05 06:00:32;;;;;;;;;0.00;0.00;;;;;-145.09;100.00;59365.97;6317423;22;9719;-86
2024/03/05 06:02:58;;;;;;;;;0.00;0.00;;;;;-145.09;100.00;59365.97;6320088;22;8749;-86
2024/03/05 06:05:29;;;;;;;;;0.00;0.00;;;;;-145.09;100.00;59365.97;6291860;22;8749;-86
2024/03/05 06:07:58;;;;;;;;;0.00;0.00;;;;;-145.09;100.00;59365.97;6319025;22;8759;-87
2024/03/05 06:10:24;;;;;;;;;0.00;0.00;;;;;-145.09;100.00;59365.97;6318340;22;8709;-87
2024/03/05 06:12:50;;;;;;;;;0.00;0.00;;;;;-145.09;100.00;59365.97;6290664;22;8764;-86
2024/03/05 06:15:21;;;;;;;;;0.00;0.00;;;;;-145.09;100.00;59365.97;6291250;22;9586;-87
2024/03/05 06:17:49;;;;;;;;;0.00;0.00;;;;;-145.09;100.00;59365.97;6293140;22;8779;-86
2024/03/05 06:20:15;;;;;;;;;0.00;0.00;;;;;-145.09;100.00;59365.97;6291892;22;8760;-87
2024/03/05 06:22:42;;;;;;;;;0.00;0.00;;;;;-145.09;100.00;59365.97;6291725;22;8767;-87
2024/03/05 06:25:08;;;;;;;;;0.00;0.00;;;;;-145.09;100.00;59365.97;6318109;22;8745;-86
2024/03/05 06:27:39;;;;;;;;;0.00;0.00;;;;;-145.09;100.00;59365.97;6291677;22;8782;-87
2024/03/05 06:30:13;;;;;;;;;0.00;0.00;;;;;-145.09;100.00;59365.97;6292115;22;8763;-86
2024/03/05 06:32:47;;;;;;;;;0.00;0.00;;;;;-145.09;100.00;59365.97;6319477;22;8768;-87
2024/03/05 06:35:18;;;;;;;;;11.00;11.00;;;;;-145.09;100.00;59365.97;6292636;22;8759;-87
2024/03/05 06:37:48;;;;;;;;;0.00;0.00;;;;;-145.09;100.00;59365.97;6319210;22;8737;-86
2024/03/05 06:40:19;;;;;;;;;0.00;0.00;;;;;-145.09;100.00;59365.97;6318922;22;8752;-86
2024/03/05 06:42:51;;;;;;;;;0.00;0.00;;;;;-145.09;100.00;59365.97;6317801;22;8764;-81
2024/03/05 06:45:27;;;;;;;;;0.00;0.00;;;;;-145.09;100.00;59365.97;6318925;22;8757;-81
2024/03/05 06:47:56;;;;;;;;;0.00;0.00;;;;;-145.09;100.00;59365.97;6319916;22;9540;-81
2024/03/05 06:50:33;;;;;;;;;0.00;0.00;;;;;-145.09;100.00;59365.97;6317394;22;8757;-80
2024/03/05 06:58:30;;;;;;;;;0.00;0.00;;;;;-145.09;100.00;59365.97;6318202;22;8768;-86
2024/03/05 07:00:56;;;;;;;;;0.00;0.00;;;;;-145.09;100.00;59365.97;6319356;22;8748;-85
2024/03/05 07:03:21;;;;;;;;;0.00;0.00;;;;;-145.09;100.00;59365.97;6318271;22;8834;-85
2024/03/05 07:05:47;;;;;;;;;0.00;0.00;;;;;-145.09;100.00;59365.97;6317929;22;8867;-85
2024/03/05 07:08:14;;;;;;;;;0.00;0.00;;;;;-145.09;100.00;59365.97;6317863;22;8792;-84
2024/03/05 07:10:41;;;;;;;;;0.00;0.00;;;;;-145.09;100.00;59365.97;6290490;22;8769;-83
2024/03/05 07:13:08;;;;;;;;;0.00;0.00;;;;;-145.09;100.00;59365.97;6290012;22;8761;-84
2024/03/05 07:15:34;;;;;;;;;0.00;0.00;;;;;-145.09;100.00;59365.97;6318558;22;8767;-83
2024/03/05 07:18:01;;;;;;;;;0.00;0.00;;;;;-145.09;100.00;59365.97;6317857;22;8780;-83
2024/03/05 07:20:27;;;;;;;;;0.00;0.00;;;;;-145.09;100.00;59365.97;6318402;22;8741;-83
2024/03/05 07:22:53;;;;;;;;;0.00;0.00;;;;;-145.09;100.00;59365.97;6318450;22;8733;-85
2024/03/05 07:25:19;;;;;;;;;0.00;0.00;;;;;-145.09;100.00;59365.97;6290479;22;8765;-83
2024/03/05 07:27:45;;;;;;;;;0.00;0.00;;;;;-145.09;100.00;59365.97;6317259;22;8752;-83
2024/03/05 07:30:12;;;;;;;;;0.00;0.00;;;;;-145.09;100.00;59365.97;6318020;22;8836;-83
2024/03/05 07:32:40;;;;;;;;;0.00;0.00;;;;;-145.09;100.00;59365.97;6318542;22;8806;-84
2024/03/05 07:35:08;;;;;;;;;0.00;0.00;;;;;-145.09;100.00;59365.97;6290489;22;25608;-84
2024/03/05 07:37:34;;;;;;;;;0.00;0.00;;;;;-145.09;100.00;59365.97;6317507;22;8829;-84
2024/03/05 07:40:09;;;;;;;;;0.00;0.00;;;;;-145.09;100.00;59365.97;6290551;22;8756;-83
2024/03/05 07:42:40;;;;;;;;;1.00;0.00;;;;;-145.09;100.00;59365.97;6304783;22;8749;-86
2024/03/05 07:45:07;;;;;;;;;0.00;0.00;;;;;-145.09;100.00;59365.97;6309890;22;8764;-85
2024/03/05 07:47:32;;;;;;;;;0.00;0.00;;;;;-145.09;100.00;59365.97;6314484;22;8788;-83
2024/03/05 07:49:58;;;;;;;;;0.00;0.00;;;;;-145.09;100.00;59365.97;6315424;22;8812;-83
2024/03/05 07:52:23;;;;;;;;;0.00;0.00;;;;;-145.09;100.00;59365.97;6315367;22;8881;-84
2024/03/05 07:54:49;;;;;;;;;0.00;0.00;;;;;-145.09;100.00;59365.97;6286269;22;30324;-82
2024/03/05 07:57:14;;;;;;;;;0.00;0.00;;;;;-145.09;100.00;59365.97;6315552;22;33409;-83
2024/03/05 07:59:39;;;;;;;;;0.00;0.00;;;;;-145.09;100.00;59365.97;6315668;22;10473;-81
2024/03/05 08:02:05;;;;;;;;;0.00;0.00;;;;;-145.09;100.00;59365.97;6315344;22;34244;-81
2024/03/05 08:04:30;;;;;;;;;0.00;0.00;;;;;-145.09;100.00;59365.97;6286030;22;32951;-85
2024/03/05 08:06:57;;;;;;;;;0.00;0.00;;;;;-145.09;100.00;59365.97;6315956;22;11451;-79
2024/03/05 08:09:23;;;;;;;;;1.00;1.00;;;;;-145.09;100.00;59365.97;6314813;22;8772;-79
2024/03/05 08:11:49;;;;;;;;;0.00;0.00;;;;;-145.09;100.00;59365.97;6316253;22;8760;-80
2024/03/05 08:14:18;;;;;;;;;0.00;0.00;;;;;-145.09;100.00;59365.97;6315907;22;8741;-81
2024/03/05 08:16:43;;;;;;;;;0.00;0.00;;;;;-145.09;100.00;59365.97;6316169;22;8756;-82
2024/03/05 08:19:09;;;;;;;;;0.00;0.00;;;;;-145.09;100.00;59365.97;6314402;22;34297;-79
2024/03/05 08:21:34;;;;;;;;;0.00;0.00;;;;;-145.09;100.00;59365.97;6315487;22;11201;-82
2024/03/05 08:24:02;;;;;;;;;0.00;0.00;;;;;-145.09;100.00;59365.97;6314817;22;8760;-83
2024/03/05 08:26:27;;;;;;;;;1.00;1.00;;;;;-145.09;100.00;59365.97;6316139;22;8776;-83
2024/03/05 08:28:53;;;;;;;;;0.00;0.00;;;;;-145.09;100.00;59365.97;6317154;22;8757;-81
2024/03/05 08:31:18;;;;;;;;;0.00;0.00;;;;;-145.09;100.00;59365.97;6316175;22;17837;-81
2024/03/05 08:33:44;;;;;;;;;0.00;0.00;;;;;-145.09;100.00;59365.97;6315082;22;20567;-80
2024/03/05 08:36:10;;;;;;;;;0.00;0.00;;;;;-145.09;100.00;59365.97;6316740;22;11430;-80
2024/03/05 08:38:36;;;;;;;;;0.00;0.00;;;;;-145.09;100.00;59365.97;6290324;22;8783;-81
2024/03/05 08:41:02;;;;;;;;;0.00;0.00;;;;;-145.09;100.00;59365.97;6287114;22;8768;-81
2024/03/05 08:43:30;;;;;;;;;0.00;0.00;;;;;-145.09;100.00;59365.97;6317086;22;8728;-81
2024/03/05 08:45:55;;;;;;;;;0.00;0.00;;;;;-145.09;100.00;59365.97;6317522;22;8767;-82
2024/03/05 08:48:21;;;;;;;;;0.00;0.00;;;;;-145.09;100.00;59365.97;6311877;22;8769;-83
2024/03/05 08:50:46;;;;;;;;;0.00;0.00;;;;;-145.09;100.00;59365.97;6289553;22;33218;-82
2024/03/05 08:53:11;;;;;;;;;0.00;0.00;;;;;-145.09;100.00;59365.97;6317696;22;13911;-82
2024/03/05 08:55:37;;;;;;;;;0.00;0.00;;;;;-145.09;100.00;59365.97;6289545;22;17482;-83
2024/03/05 08:58:03;;;;;;;;;0.00;0.00;;;;;-145.09;100.00;59365.97;6317910;22;10956;-83
2024/03/05 09:00:33;;;;;;;;;0.00;0.00;;;;;-145.09;100.00;59365.97;6290784;22;10104;-82
2024/03/05 09:02:58;;;;;;;;;0.00;0.00;;;;;-145.09;100.00;59365.97;6316246;22;8725;-81
2024/03/05 09:05:24;;;;;;;;;0.00;0.00;;;;;-145.09;100.00;59365.97;6316446;22;8768;-83
2024/03/05 09:07:50;;;;;;;;;0.00;0.00;;;;;-145.09;100.00;59365.97;6316961;22;32587;-82
2024/03/05 09:10:17;;;;;;;;;0.00;0.00;;;;;-145.09;100.00;59365.97;6317925;22;11579;-85
2024/03/05 09:12:43;;;;;;;;;0.00;0.00;;;;;-145.09;100.00;59365.97;6290419;22;8787;-83
2024/03/05 09:15:09;;;;;;;;;0.00;0.00;;;;;-145.09;100.00;59365.97;6318192;22;8803;-82
2024/03/05 09:17:35;;;;;;;;;0.00;0.00;;;;;-145.09;100.00;59365.97;6317120;22;8760;-82
2024/03/05 09:20:13;;;;;;;;;0.00;0.00;;;;;-145.09;100.00;59365.97;6317951;22;8760;-84
2024/03/05 09:22:44;;;;;;;;;12.00;12.00;;;;;-145.09;100.00;59365.97;6316851;22;8793;-84
2024/03/05 09:25:10;;;;;;;;;0.00;0.00;;;;;-145.09;100.00;59365.97;6290587;22;8741;-80
2024/03/05 09:27:37;;;;;;;;;0.00;0.00;;;;;-145.09;100.00;59365.97;6317636;22;8835;-81
2024/03/05 09:30:05;;;;;;;;;0.00;0.00;;;;;-145.09;100.00;59365.97;6316500;22;8752;-83
2024/03/05 09:32:30;;;;;;;;;0.00;0.00;;;;;-145.09;100.00;59365.97;6316367;22;8783;-82
2024/03/05 09:34:56;;;;;;;;;0.00;0.00;;;;;-145.09;100.00;59365.97;6317306;22;8878;-82
2024/03/05 09:37:22;;;;;;;;;0.00;0.00;;;;;-145.09;100.00;59365.97;6289966;22;14024;-82
2024/03/05 09:39:49;;;;;;;;;0.00;0.00;;;;;-145.09;100.00;59365.97;6289782;22;8756;-83
2024/03/05 09:42:15;;;;;;;;;0.00;0.00;;;;;-145.09;100.00;59365.97;6290150;22;8737;-84
2024/03/05 09:44:41;;;;;;;;;0.00;0.00;;;;;-145.09;100.00;59365.97;6315264;22;8859;-83
2024/03/05 09:47:08;;;;;;;;;0.00;0.00;;;;;-145.09;100.00;59365.97;6317436;22;8768;-82
2024/03/05 09:49:33;;;;;;;;;0.00;0.00;;;;;-145.09;100.00;59365.97;6289494;22;8775;-81
2024/03/05 09:51:58;;;;;;;;;0.00;0.00;;;;;-145.09;100.00;59365.97;6287937;22;21463;-82
2024/03/05 09:54:24;;;;;;;;;0.00;0.00;;;;;-145.09;100.00;59365.97;6288807;22;27483;-81
2024/03/05 09:56:53;;;;;;;;;0.00;0.00;;;;;-145.09;100.00;59365.97;6317216;22;9589;-80
2024/03/05 09:59:19;;;;;;;;;0.00;0.00;;;;;-145.09;100.00;59365.97;6317171;22;8779;-81
2024/03/05 10:01:48;;;;;;;;;0.00;0.00;;;;;-145.09;100.00;59365.97;6316974;22;8764;-83
2024/03/05 10:04:15;;;;;;;;;0.00;0.00;;;;;-145.09;100.00;59365.97;6289411;22;8756;-83
2024/03/05 10:06:48;;;;;;;;;0.00;0.00;;;;;-145.09;100.00;59365.97;6316468;22;8832;-82
2024/03/05 10:09:14;;;;;;;;;0.00;0.00;;;;;-145.09;100.00;59365.97;6317280;22;8753;-83
2024/03/05 10:11:40;;;;;;;;;0.00;0.00;;;;;-145.09;100.00;59365.97;6289692;22;8773;-82
2024/03/05 10:14:08;;;;;;;;;0.50;0.50;;;;;-145.09;100.00;59365.97;6316865;22;8737;-82
2024/03/05 10:16:37;;;;;;;;;0.00;0.00;;;;;-145.09;100.00;59365.97;6317136;22;8736;-82
2024/03/05 10:19:16;;;;;;;;;0.00;0.00;;;;;-145.09;100.00;59365.97;6317536;22;8834;-83
2024/03/05 10:21:42;;;;;;;;;1.00;0.00;;;;;-145.09;100.00;59365.97;6317769;22;8774;-82
2024/03/05 10:24:10;;;;;;;;;0.00;0.00;;;;;-145.09;100.00;59365.97;6289440;22;8757;-82
2024/03/05 10:26:36;;;;;;;;;0.00;0.00;;;;;-145.09;100.00;59365.97;6316177;22;8757;-83
2024/03/05 10:29:09;;;;;;;;;0.00;0.00;;;;;-145.09;100.00;59365.97;6290174;22;8791;-82
2024/03/05 10:31:42;;;;;;;;;0.00;0.00;;;;;-145.09;100.00;59365.97;6289658;22;8753;-82
2024/03/05 10:34:09;;;;;;;;;0.00;0.00;;;;;-145.09;100.00;59365.97;6316755;22;8780;-81
2024/03/05 10:36:36;;;;;;;;;0.00;0.00;;;;;-145.09;100.00;59365.97;6313954;22;8768;-82
2024/03/05 10:39:03;;;;;;;;;0.00;0.00;;;;;-145.09;100.00;59365.97;6317701;22;8745;-83
2024/03/05 10:41:35;;;;;;;;;0.00;0.00;;;;;-145.09;100.00;59365.97;6317194;22;8725;-82
2024/03/05 10:44:01;;;;;;;;;0.00;0.00;;;;;-145.09;100.00;59365.97;6316738;22;8745;-82
2024/03/05 10:46:34;;;;;;;;;0.00;0.00;;;;;-145.09;100.00;59365.97;6317646;22;8760;-83
2024/03/05 10:49:01;;;;;;;;;0.00;0.00;;;;;-145.09;100.00;59365.97;6290801;22;8792;-82
2024/03/05 10:51:31;;;;;;;;;0.00;0.00;;;;;-145.09;100.00;59365.97;6317723;22;8736;-83
2024/03/05 10:54:00;;;;;;;;;0.00;0.00;;;;;-145.09;100.00;59365.97;6264111;22;8789;-81
2024/03/05 10:56:26;;;;;;;;;0.00;0.00;;;;;-145.09;100.00;59365.97;6316156;22;8871;-83
2024/03/05 11:01:37;;;;;;;;;0.00;0.00;;;;;-145.09;100.00;59365.97;6290516;22;8760;-82
2024/03/05 11:04:12;;;;;;;;;0.00;0.00;;;;;-145.09;100.00;59365.97;6289525;22;8753;-81
2024/03/05 11:06:40;;;;;;;;;0.00;0.00;;;;;-145.09;100.00;59365.97;6315166;22;8790;-80
2024/03/05 11:09:09;;;;;;;;;0.00;0.00;;;;;-145.09;100.00;59365.97;6314977;22;8775;-82
2024/03/05 11:11:35;;;;;;;;;0.00;0.00;;;;;-145.09;100.00;59365.97;6289077;22;9627;-83
2024/03/05 11:14:03;;;;;;;;;0.00;0.00;;;;;-145.09;100.00;59365.97;6289238;22;8749;-83
2024/03/05 11:16:32;;;;;;;;;0.00;0.00;;;;;-145.09;100.00;59365.97;6289624;22;8764;-82
2024/03/05 11:18:58;;;;;;;;;0.00;0.00;;;;;-145.09;100.00;59365.97;6315464;22;8756;-82
2024/03/05 11:21:25;;;;;;;;;0.00;0.00;;;;;-145.09;100.00;59365.97;6317215;22;8741;-80
2024/03/05 11:23:50;;;;;;;;;0.00;0.00;;;;;-145.09;100.00;59365.97;6317688;22;8745;-82
2024/03/05 11:26:23;;;;;;;;;0.00;0.00;;;;;-145.09;100.00;59365.97;6317318;22;8847;-83
2024/03/05 11:28:48;;;;;;;;;0.00;0.00;;;;;-145.09;100.00;59365.97;6289951;22;8769;-83